Accueil
METAR-TAF:

METAR-TAF

Aéroports :

Aéroport de Samos

Samos, Grèce

latitude: 37-42N, longitude: 026-55E, altitude: 2 m

Observation

Le bulletin a été fait il y a 2 heures et 23 minutes, à 17:50 UTC
Vent calme
Température 17°C
Humidité 77%
Pression 1019 hPa
Visibilité 10 km ou plus
pas de nuages en-dessous de 1500 mètres et pas de cumulonimbus.

METAR: LGSM 201750Z 00000KT CAVOK 17/13 Q1019

Heure: 22:13 (20:13 UTC)

Prévision

Le bulletin a été fait il y a 3 heures et 13 minutes, à 17:00 UTC
Prévision valable du 20 à 18 UTC au 21 à 03 UTC
Vent 8 kt de sud/sud-est
Visibilité 10 km ou plus
Quelques nuages à une hauteur de 2500 ft

TAF: LGSM 201700Z 2018/2103 16008KT 9999 FEW025

Observations et prévisions météorologiques de plus de 4000 aéroports (messages METAR et TAF).

Les stations disponibles sont représentées par des disques jaunes et rouges sur la carte.

Passer la souris dessus pour voir le nom de la station.

Cliquer dessus pour voir les observations et prévisions météorologiques.

Pour changer de carte: cliquez sur les boutons verts avec une croix noire pour zoomer, sur le bouton vert avec un tiret pour effectuer un zoom arrière, ou sur les flèches vertes pour les cartes adjacentes.


METAR-TAF: